Time;durP1;ratioP1;P1;durP2;ratioP2;P2;SDS_P1;SDS_P2;PMS_P1;PMS_P2;Temp;Humidity;BMP_temperature;BMP_pressure;BME280_temperature;BME280_humidity;BME280_pressure;Samples;Min_cycle;Max_cycle;Signal;HPM_P1;HPM_P2
2021/06/07 00:00:26;;;;;;;29.13;26.60;;;16.90;99.90;;;;;;5058405;28;20540;-65
2021/06/07 00:02:52;;;;;;;28.87;25.93;;;16.90;99.90;;;;;;5052796;28;20198;-65
2021/06/07 00:05:18;;;;;;;29.30;26.50;;;16.90;99.90;;;;;;5064778;28;20174;-65
2021/06/07 00:07:43;;;;;;;32.00;28.70;;;16.80;99.90;;;;;;5072818;28;20166;-65
2021/06/07 00:10:11;;;;;;;29.90;27.20;;;17.00;99.90;;;;;;5061499;28;20254;-65
2021/06/07 00:12:38;;;;;;;29.73;27.03;;;17.00;99.90;;;;;;5052545;28;20704;-65
2021/06/07 00:15:08;;;;;;;30.23;27.10;;;17.00;99.90;;;;;;5060551;28;20606;-65
2021/06/07 00:17:33;;;;;;;30.47;27.33;;;17.10;99.90;;;;;;5072623;28;20170;-65
2021/06/07 00:19:59;;;;;;;29.63;26.83;;;17.10;99.90;;;;;;5064099;28;20181;-65
2021/06/07 00:22:25;;;;;;;30.87;28.13;;;17.10;99.90;;;;;;5052429;28;20191;-65
2021/06/07 00:24:50;;;;;;;31.13;28.00;;;17.10;99.90;;;;;;5058612;28;20177;-65
2021/06/07 00:27:16;;;;;;;31.07;27.47;;;17.10;99.90;;;;;;5072351;28;20166;-65
2021/06/07 00:29:42;;;;;;;30.77;27.77;;;17.10;99.90;;;;;;5067364;28;20175;-65
2021/06/07 00:32:08;;;;;;;30.37;27.23;;;17.10;99.90;;;;;;5052229;28;20256;-65
2021/06/07 00:34:34;;;;;;;30.57;27.57;;;17.10;99.90;;;;;;5055020;28;20186;-65
2021/06/07 00:36:59;;;;;;;30.33;27.03;;;17.10;99.90;;;;;;5087794;28;20173;-65
2021/06/07 00:39:25;;;;;;;33.00;29.73;;;17.10;99.90;;;;;;5070672;28;20209;-65
2021/06/07 00:41:51;;;;;;;40.43;27.60;;;17.10;99.90;;;;;;5051937;28;20186;-65
2021/06/07 00:44:22;;;;;;;31.80;28.60;;;17.10;99.90;;;;;;5067407;28;20202;-65
2021/06/07 00:46:48;;;;;;;31.27;28.27;;;17.10;99.90;;;;;;5032201;28;20262;-65
2021/06/07 00:49:14;;;;;;;30.17;27.27;;;17.10;99.90;;;;;;5032145;28;20167;-65
2021/06/07 00:51:41;;;;;;;31.60;28.53;;;17.00;99.90;;;;;;5069221;28;20263;-65
2021/06/07 00:54:08;;;;;;;30.43;27.43;;;17.00;99.90;;;;;;5059099;28;20186;-65
2021/06/07 00:56:34;;;;;;;30.23;27.30;;;16.90;99.90;;;;;;5052043;28;20171;-65
2021/06/07 00:59:00;;;;;;;32.93;29.43;;;17.00;99.90;;;;;;5062685;28;20173;-65
2021/06/07 01:01:27;;;;;;;32.27;29.23;;;16.90;99.90;;;;;;5071386;28;20193;-65
2021/06/07 01:03:56;;;;;;;31.77;28.90;;;16.90;99.90;;;;;;5062117;28;20182;-65
2021/06/07 01:06:22;;;;;;;32.37;29.23;;;16.90;99.90;;;;;;5051743;28;20209;-65
2021/06/07 01:08:48;;;;;;;34.37;30.87;;;16.90;99.90;;;;;;5059802;28;20706;-65
2021/06/07 01:11:15;;;;;;;31.90;28.63;;;16.90;99.90;;;;;;5070772;28;20204;-65
2021/06/07 01:13:41;;;;;;;32.47;29.17;;;16.90;99.90;;;;;;5066192;28;20195;-65
2021/06/07 01:16:07;;;;;;;33.77;30.30;;;16.80;99.90;;;;;;5071806;28;20597;-65
2021/06/07 01:18:33;;;;;;;34.17;30.83;;;16.70;99.90;;;;;;5066184;28;20179;-65
2021/06/07 01:21:22;;;;;;;35.00;31.50;;;16.70;99.90;;;;;;5051157;28;20187;-65
2021/06/07 01:23:48;;;;;;;34.97;31.20;;;16.60;99.90;;;;;;5058281;28;20178;-65
2021/06/07 01:26:17;;;;;;;35.33;31.70;;;16.60;99.90;;;;;;5071415;28;20753;-65
2021/06/07 01:28:43;;;;;;;36.47;32.70;;;16.50;99.90;;;;;;5066158;28;20662;-65
2021/06/07 01:31:11;;;;;;;36.30;32.63;;;16.50;99.90;;;;;;5050965;28;20214;-65
2021/06/07 01:33:38;;;;;;;38.03;33.27;;;16.40;99.90;;;;;;5052260;28;20206;-65
2021/06/07 01:36:05;;;;;;;38.23;34.13;;;16.30;99.90;;;;;;5051410;28;20170;-65
2021/06/07 01:38:31;;;;;;;38.27;34.33;;;16.30;99.90;;;;;;5054382;28;20217;-65
2021/06/07 01:40:59;;;;;;;41.50;36.70;;;16.40;99.90;;;;;;5071291;28;20257;-65
2021/06/07 01:43:26;;;;;;;40.33;36.43;;;16.20;99.90;;;;;;5069080;28;20276;-65
2021/06/07 01:45:53;;;;;;;39.87;35.77;;;16.20;99.90;;;;;;5051431;28;20715;-65
2021/06/07 01:48:20;;;;;;;41.83;37.27;;;16.10;99.90;;;;;;5051421;28;20207;-65
2021/06/07 01:50:47;;;;;;;44.37;36.67;;;16.20;99.90;;;;;;5071034;28;20741;-65
2021/06/07 01:53:14;;;;;;;42.63;36.57;;;16.30;99.90;;;;;;5071127;28;20190;-65
2021/06/07 01:55:45;;;;;;;39.40;35.33;;;16.30;99.90;;;;;;5051614;28;20175;-65
2021/06/07 01:58:13;;;;;;;39.00;34.80;;;16.30;99.90;;;;;;5051187;28;20652;-65
2021/06/07 02:00:46;;;;;;;42.17;34.70;;;16.30;99.90;;;;;;5069505;28;20319;-65
2021/06/07 02:03:13;;;;;;;36.73;32.63;;;16.30;99.90;;;;;;5071259;28;20273;-65
2021/06/07 02:05:41;;;;;;;53.17;32.23;;;16.20;99.90;;;;;;5052713;28;20181;-65
2021/06/07 02:08:10;;;;;;;58.90;31.87;;;16.20;99.90;;;;;;5051039;28;20179;-65
2021/06/07 02:10:39;;;;;;;40.53;29.60;;;16.10;99.90;;;;;;5051023;28;20175;-64
2021/06/07 02:13:07;;;;;;;33.90;25.27;;;16.10;99.90;;;;;;5056130;28;20198;-65
2021/06/07 02:15:33;;;;;;;26.60;21.37;;;16.10;99.90;;;;;;5071149;28;20186;-65
2021/06/07 02:18:07;;;;;;;30.77;19.57;;;16.10;99.90;;;;;;5067676;28;20659;-70
2021/06/07 02:20:33;;;;;;;19.03;17.00;;;16.10;99.90;;;;;;5052648;28;20248;-69
2021/06/07 02:22:59;;;;;;;17.50;15.30;;;16.10;99.90;;;;;;5055367;28;20666;-69
2021/06/07 02:25:25;;;;;;;19.57;13.80;;;16.00;99.90;;;;;;5076331;28;20174;-71
2021/06/07 02:27:52;;;;;;;13.80;12.43;;;16.00;99.90;;;;;;5074534;28;20179;-70
2021/06/07 02:30:20;;;;;;;14.10;12.70;;;16.00;99.90;;;;;;5055963;28;20199;-68
2021/06/07 02:32:46;;;;;;;12.47;11.20;;;16.00;99.90;;;;;;5056298;28;20293;-69
2021/06/07 02:35:15;;;;;;;11.37;10.30;;;16.00;99.90;;;;;;5076195;28;20181;-71
2021/06/07 02:37:42;;;;;;;9.63;8.93;;;16.00;99.90;;;;;;5076307;28;20235;-71
2021/06/07 02:40:10;;;;;;;10.87;9.97;;;15.90;99.90;;;;;;5056338;28;20225;-70
2021/06/07 02:42:39;;;;;;;10.03;9.13;;;15.90;99.90;;;;;;5056515;28;20694;-70
2021/06/07 02:45:07;;;;;;;25.07;9.53;;;15.90;99.90;;;;;;5056104;28;20202;-71
2021/06/07 02:47:32;;;;;;;9.90;9.00;;;15.90;99.90;;;;;;5056061;28;20193;-69
2021/06/07 02:49:58;;;;;;;10.13;9.43;;;15.90;99.90;;;;;;5074867;28;20179;-69
2021/06/07 02:52:24;;;;;;;11.20;10.10;;;15.80;99.90;;;;;;5073803;28;20202;-68
2021/06/07 02:54:50;;;;;;;9.73;8.93;;;15.80;99.90;;;;;;5075884;28;20626;-68
2021/06/07 02:57:15;;;;;;;9.17;8.47;;;15.80;99.90;;;;;;5085620;28;20174;-71
2021/06/07 02:59:41;;;;;;;9.57;8.87;;;15.80;99.90;;;;;;5055781;28;20179;-71
2021/06/07 03:02:06;;;;;;;10.20;9.30;;;15.70;99.90;;;;;;5057946;28;20198;-70
2021/06/07 03:04:32;;;;;;;9.73;8.97;;;15.70;99.90;;;;;;5075652;28;20244;-68
2021/06/07 03:06:58;;;;;;;10.00;9.17;;;15.60;99.90;;;;;;5073623;28;20174;-67
2021/06/07 03:09:23;;;;;;;9.70;8.90;;;15.60;99.90;;;;;;5055337;28;20171;-67
2021/06/07 03:11:49;;;;;;;9.80;9.00;;;15.50;99.90;;;;;;5070553;28;20202;-67
2021/06/07 03:14:15;;;;;;;10.60;9.60;;;15.40;99.90;;;;;;5075179;28;20174;-68
2021/06/07 03:16:40;;;;;;;10.03;9.17;;;15.40;99.90;;;;;;5075433;28;20515;-68
2021/06/07 03:19:06;;;;;;;11.17;10.27;;;15.30;99.90;;;;;;5071886;28;20183;-69
2021/06/07 03:21:32;;;;;;;10.97;10.17;;;15.30;99.90;;;;;;5055391;28;20693;-67
2021/06/07 03:23:58;;;;;;;11.57;10.63;;;15.30;99.90;;;;;;5071644;28;20223;-70
2021/06/07 03:26:23;;;;;;;10.73;9.93;;;15.30;99.90;;;;;;5074950;28;20201;-69
2021/06/07 03:28:49;;;;;;;10.77;9.80;;;15.20;99.90;;;;;;5059830;28;20178;-66
2021/06/07 03:31:15;;;;;;;9.80;9.00;;;15.10;99.90;;;;;;5054482;28;20590;-68
2021/06/07 03:33:41;;;;;;;11.63;10.53;;;15.10;99.90;;;;;;5067723;28;20210;-68
2021/06/07 03:36:07;;;;;;;10.47;9.60;;;15.10;99.90;;;;;;5074186;28;20170;-67
2021/06/07 03:38:34;;;;;;;11.33;10.17;;;15.10;99.90;;;;;;5062838;28;20179;-68
2021/06/07 03:40:59;;;;;;;11.37;10.37;;;15.10;99.90;;;;;;5054521;28;20198;-68
2021/06/07 03:43:28;;;;;;;12.60;11.33;;;15.10;99.90;;;;;;5064385;28;20237;-70
2021/06/07 03:45:54;;;;;;;12.47;11.37;;;15.00;99.90;;;;;;5075078;28;20170;-69
2021/06/07 03:48:20;;;;;;;13.13;11.93;;;14.90;99.90;;;;;;5065765;28;20178;-68
2021/06/07 03:50:46;;;;;;;10.83;9.83;;;15.00;99.90;;;;;;5053709;28;20206;-65
2021/06/07 03:53:13;;;;;;;11.57;10.33;;;15.00;99.90;;;;;;5059843;28;20715;-65
2021/06/07 03:55:39;;;;;;;11.37;10.37;;;15.00;99.90;;;;;;5073186;28;20635;-65
2021/06/07 03:58:06;;;;;;;12.20;11.13;;;15.00;99.90;;;;;;5067150;28;20229;-65
2021/06/07 04:00:34;;;;;;;12.43;11.23;;;15.00;99.90;;;;;;5052559;28;20175;-65
2021/06/07 04:03:00;;;;;;;12.70;11.70;;;14.90;99.90;;;;;;5056830;28;20194;-65
2021/06/07 04:05:26;;;;;;;11.93;10.97;;;15.00;99.90;;;;;;5072824;28;20216;-64
2021/06/07 04:07:52;;;;;;;12.87;11.77;;;15.00;99.90;;;;;;5069872;28;20231;-65
2021/06/07 04:10:21;;;;;;;11.93;10.93;;;15.00;99.90;;;;;;5052525;28;20682;-64
2021/06/07 04:12:49;;;;;;;13.20;11.87;;;15.10;99.90;;;;;;5054103;28;20195;-65
2021/06/07 04:15:21;;;;;;;12.10;11.10;;;15.10;99.90;;;;;;5072627;28;20644;-65
2021/06/07 04:17:47;;;;;;;11.37;10.43;;;15.10;99.90;;;;;;5071797;28;20162;-65
2021/06/07 04:20:15;;;;;;;12.47;11.20;;;15.10;99.90;;;;;;5052403;28;20171;-65
2021/06/07 04:22:43;;;;;;;12.47;10.77;;;15.00;99.90;;;;;;5052705;28;20278;-65
2021/06/07 04:25:09;;;;;;;11.03;10.13;;;14.90;99.90;;;;;;5071916;28;20201;-65
2021/06/07 04:27:37;;;;;;;11.20;10.43;;;14.90;99.90;;;;;;5072463;28;20585;-65
2021/06/07 04:30:05;;;;;;;9.83;8.87;;;14.90;99.90;;;;;;5053296;28;20179;-65
2021/06/07 04:32:33;;;;;;;9.93;9.07;;;15.00;99.90;;;;;;5081791;22;20222;-66
2021/06/07 04:35:00;;;;;;;10.67;9.87;;;15.10;99.90;;;;;;5089801;28;20184;-65
2021/06/07 04:37:27;;;;;;;10.10;9.27;;;15.10;99.90;;;;;;5092544;28;20166;-66
2021/06/07 04:39:53;;;;;;;10.90;9.90;;;15.10;99.90;;;;;;5075628;28;20550;-65
2021/06/07 04:42:19;;;;;;;11.10;10.00;;;15.10;99.90;;;;;;5078749;28;20198;-66
2021/06/07 04:44:45;;;;;;;10.07;9.30;;;15.20;99.90;;;;;;5092450;28;20177;-65
2021/06/07 04:47:10;;;;;;;10.80;9.90;;;15.30;99.90;;;;;;5086151;28;21117;-65
2021/06/07 04:49:36;;;;;;;11.13;10.23;;;15.50;99.90;;;;;;5072024;28;20597;-65
2021/06/07 04:52:03;;;;;;;10.50;9.70;;;15.70;99.90;;;;;;5084418;28;20213;-65
2021/06/07 04:54:28;;;;;;;13.23;12.17;;;15.80;99.90;;;;;;5092181;28;20183;-65
2021/06/07 04:56:54;;;;;;;14.07;13.07;;;15.90;99.90;;;;;;5080651;28;20174;-65
2021/06/07 04:59:19;;;;;;;11.30;10.40;;;16.00;99.90;;;;;;5071756;28;20534;-65
2021/06/07 05:01:45;;;;;;;11.27;10.27;;;16.10;99.90;;;;;;5080942;28;20581;-65
2021/06/07 05:04:11;;;;;;;12.30;11.33;;;16.40;99.90;;;;;;5092063;28;20177;-65
2021/06/07 05:06:36;;;;;;;10.23;9.47;;;16.70;99.90;;;;;;5084051;28;20186;-66
2021/06/07 05:09:02;;;;;;;11.67;10.77;;;16.90;99.90;;;;;;5070671;28;20186;-65
2021/06/07 05:11:28;;;;;;;11.53;10.63;;;17.00;99.90;;;;;;5077090;28;20209;-65
2021/06/07 05:13:54;;;;;;;10.87;9.97;;;17.00;99.90;;;;;;5091901;28;20555;-66
2021/06/07 05:16:19;;;;;;;11.20;10.10;;;17.10;99.90;;;;;;5087314;28;20184;-65
2021/06/07 05:18:45;;;;;;;10.63;9.77;;;17.30;99.90;;;;;;5071675;28;20181;-66
2021/06/07 05:21:10;;;;;;;9.60;8.90;;;17.50;99.90;;;;;;5073381;28;20190;-66
2021/06/07 05:23:36;;;;;;;11.47;10.47;;;17.60;99.90;;;;;;5091695;28;20185;-66
2021/06/07 05:26:02;;;;;;;11.80;10.73;;;17.60;99.90;;;;;;5090876;28;20197;-65
2021/06/07 05:28:28;;;;;;;10.93;10.00;;;17.60;99.90;;;;;;5071437;28;20227;-66
2021/06/07 05:30:53;;;;;;;10.27;9.37;;;17.80;99.90;;;;;;5071185;28;20633;-65
2021/06/07 05:33:19;;;;;;;10.53;9.57;;;17.90;99.90;;;;;;5090291;28;20211;-66
2021/06/07 05:35:48;;;;;;;10.00;9.20;;;18.10;99.90;;;;;;5091717;28;20168;-65
2021/06/07 05:38:14;;;;;;;10.90;9.80;;;18.20;99.90;;;;;;5073481;28;20201;-66
2021/06/07 05:40:41;;;;;;;10.07;9.13;;;18.10;99.90;;;;;;5071065;28;20166;-66
2021/06/07 05:43:07;;;;;;;11.73;10.63;;;18.10;99.90;;;;;;5087385;28;20196;-65
2021/06/07 05:45:34;;;;;;;10.13;9.17;;;18.10;99.90;;;;;;5069634;28;20170;-65
2021/06/07 05:47:59;;;;;;;10.63;9.73;;;18.20;99.90;;;;;;5085902;28;20178;-66
2021/06/07 05:50:33;;;;;;;10.53;9.63;;;18.50;99.90;;;;;;5091173;28;20249;-65
2021/06/07 05:52:59;;;;;;;10.70;9.67;;;18.70;99.90;;;;;;5086934;28;20201;-65
2021/06/07 05:55:28;;;;;;;12.23;10.93;;;18.80;99.90;;;;;;5091319;28;20192;-66
2021/06/07 05:57:56;;;;;;;10.00;9.10;;;19.10;99.90;;;;;;5078276;28;20663;-64
2021/06/07 06:00:25;;;;;;;11.03;10.07;;;19.10;99.90;;;;;;5076211;28;20177;-64
2021/06/07 06:02:51;;;;;;;12.13;10.97;;;19.10;99.90;;;;;;5095595;28;20189;-65
2021/06/07 06:05:17;;;;;;;11.90;10.77;;;18.80;99.90;;;;;;5094686;28;20176;-65
2021/06/07 06:07:43;;;;;;;12.37;9.77;;;18.60;99.90;;;;;;5054978;28;20209;-65
2021/06/07 06:10:10;;;;;;;11.33;10.17;;;18.50;99.90;;;;;;5053256;28;20261;-64
2021/06/07 06:12:37;;;;;;;10.60;9.57;;;18.50;99.90;;;;;;5074904;28;20210;-64
2021/06/07 06:15:03;;;;;;;12.10;10.17;;;18.70;99.90;;;;;;5074748;28;20166;-65
2021/06/07 06:17:29;;;;;;;12.63;11.43;;;18.90;99.90;;;;;;5091568;28;20226;-65
2021/06/07 06:19:55;;;;;;;11.53;10.60;;;18.90;99.90;;;;;;5094823;28;20189;-64
2021/06/07 06:22:20;;;;;;;13.77;12.47;;;19.10;99.90;;;;;;5079447;28;20312;-65
2021/06/07 06:24:46;;;;;;;14.63;13.13;;;19.20;99.90;;;;;;5073902;28;20198;-64
2021/06/07 06:27:13;;;;;;;12.63;11.30;;;19.40;99.90;;;;;;5075489;28;20190;-64
2021/06/07 06:29:39;;;;;;;14.13;11.37;;;19.70;99.90;;;;;;5074446;28;20174;-64
2021/06/07 06:32:06;;;;;;;12.23;11.07;;;19.60;99.90;;;;;;5082694;28;20250;-64
2021/06/07 06:34:31;;;;;;;14.37;13.03;;;19.60;99.90;;;;;;5074610;28;20202;-64
2021/06/07 06:36:57;;;;;;;13.73;12.50;;;19.60;99.90;;;;;;5075529;28;20201;-65
2021/06/07 06:39:23;;;;;;;13.47;12.07;;;19.60;99.90;;;;;;5074232;28;20249;-64
2021/06/07 06:41:49;;;;;;;15.27;13.63;;;19.50;99.90;;;;;;5081715;28;20269;-64
2021/06/07 06:44:14;;;;;;;13.67;12.37;;;19.40;99.90;;;;;;5076394;28;20714;-64
2021/06/07 06:46:40;;;;;;;15.23;13.10;;;19.50;99.90;;;;;;5088195;28;20243;-65
2021/06/07 06:49:06;;;;;;;12.23;11.13;;;19.40;99.90;;;;;;5074184;28;20170;-65
2021/06/07 06:51:31;;;;;;;11.27;10.20;;;19.30;99.90;;;;;;5089041;28;20212;-64
2021/06/07 06:53:57;;;;;;;12.97;11.73;;;19.30;99.90;;;;;;5094394;28;20274;-65
2021/06/07 06:56:23;;;;;;;13.30;12.20;;;19.20;99.90;;;;;;5080232;28;20591;-65
2021/06/07 06:58:50;;;;;;;11.80;10.80;;;19.00;99.90;;;;;;5074102;28;20252;-65
2021/06/07 07:01:17;;;;;;;13.00;11.63;;;18.90;99.90;;;;;;5077061;28;20178;-64
2021/06/07 07:03:44;;;;;;;11.17;10.10;;;18.90;99.90;;;;;;5079902;28;20197;-65
2021/06/07 07:06:10;;;;;;;11.67;10.67;;;18.80;99.90;;;;;;5094203;28;20169;-64
2021/06/07 07:08:35;;;;;;;11.47;10.30;;;18.70;99.90;;;;;;5093987;28;20642;-64
2021/06/07 07:11:01;;;;;;;12.47;11.27;;;18.70;99.90;;;;;;5091852;28;20225;-64
2021/06/07 07:13:27;;;;;;;11.47;10.37;;;18.60;99.90;;;;;;5092984;28;20181;-65
2021/06/07 07:15:53;;;;;;;11.03;10.13;;;18.40;99.90;;;;;;5093986;28;20507;-64
2021/06/07 07:18:18;;;;;;;11.40;10.30;;;18.30;99.90;;;;;;5093827;28;20161;-65
2021/06/07 07:20:44;;;;;;;12.47;11.17;;;18.40;99.90;;;;;;5093625;28;20162;-64
2021/06/07 07:23:11;;;;;;;10.00;9.20;;;18.50;99.90;;;;;;5093646;28;20188;-65
2021/06/07 07:25:37;;;;;;;11.33;10.23;;;18.50;99.90;;;;;;5093841;28;20536;-65
2021/06/07 07:28:05;;;;;;;12.80;9.17;;;18.50;99.90;;;;;;5094337;28;20196;-65
2021/06/07 07:30:33;;;;;;;11.73;9.93;;;18.60;99.90;;;;;;5092414;28;20621;-65
2021/06/07 07:32:59;;;;;;;11.33;10.33;;;18.90;99.90;;;;;;5093528;28;20201;-64
2021/06/07 07:35:25;;;;;;;12.17;11.07;;;19.00;99.90;;;;;;5093461;28;20246;-64
2021/06/07 07:37:52;;;;;;;12.60;11.53;;;19.10;99.90;;;;;;5093604;28;20544;-66
2021/06/07 07:40:21;;;;;;;11.73;10.63;;;19.30;99.90;;;;;;5093157;28;20651;-65
2021/06/07 07:42:48;;;;;;;12.97;11.97;;;19.30;99.90;;;;;;5093481;28;20197;-64
2021/06/07 07:45:17;;;;;;;11.70;10.70;;;19.50;99.90;;;;;;5093243;28;20192;-66
2021/06/07 07:47:43;;;;;;;13.80;12.60;;;19.90;99.90;;;;;;5093482;28;20533;-65
2021/06/07 07:50:14;;;;;;;11.20;10.20;;;20.00;99.90;;;;;;5093176;28;20178;-64
2021/06/07 07:52:41;;;;;;;12.53;11.33;;;20.00;99.90;;;;;;5093120;28;20288;-65
2021/06/07 07:55:09;;;;;;;15.00;13.63;;;20.10;99.90;;;;;;5093127;28;20166;-64
2021/06/07 07:57:34;;;;;;;13.73;12.37;;;20.00;99.90;;;;;;5093111;28;20157;-65
2021/06/07 08:00:00;;;;;;;13.03;11.73;;;20.20;99.90;;;;;;5093016;28;20545;-65
2021/06/07 08:02:26;;;;;;;11.43;10.52;;;20.40;99.90;;;;;;5092938;28;20225;-65
2021/06/07 08:04:51;;;;;;;11.75;10.65;;;21.00;99.90;;;;;;5092955;28;20174;-65
2021/06/07 08:07:17;;;;;;;10.37;9.43;;;21.30;99.90;;;;;;5087863;28;20277;-65
2021/06/07 08:09:43;;;;;;;10.60;9.52;;;21.50;99.90;;;;;;5072172;28;20182;-64
2021/06/07 08:12:08;;;;;;;12.80;11.02;;;21.70;99.90;;;;;;5072300;28;20706;-65
2021/06/07 08:14:34;;;;;;;11.13;10.00;;;21.70;99.90;;;;;;5072642;28;20216;-65
2021/06/07 08:17:00;;;;;;;11.65;10.48;;;21.60;99.90;;;;;;5072607;28;20194;-67
2021/06/07 08:19:26;;;;;;;11.35;10.27;;;21.90;99.90;;;;;;5072171;28;20204;-66
2021/06/07 08:21:52;;;;;;;11.25;10.25;;;22.00;99.90;;;;;;5072037;28;20186;-67
2021/06/07 08:24:18;;;;;;;10.67;9.67;;;21.80;99.90;;;;;;5072144;28;20537;-65
2021/06/07 08:26:44;;;;;;;11.90;10.70;;;21.60;99.90;;;;;;5072346;28;20199;-65
2021/06/07 08:29:10;;;;;;;12.57;11.10;;;21.30;99.90;;;;;;5072091;28;20180;-66
2021/06/07 08:31:36;;;;;;;11.93;10.80;;;21.00;99.90;;;;;;5071891;28;20206;-66
2021/06/07 08:34:03;;;;;;;14.23;11.20;;;21.00;99.90;;;;;;5072261;28;20764;-66
2021/06/07 08:36:29;;;;;;;14.30;11.17;;;20.90;99.90;;;;;;5071133;28;20166;-67
2021/06/07 08:38:55;;;;;;;12.77;11.70;;;20.90;99.90;;;;;;5072201;28;20594;-66
2021/06/07 08:41:20;;;;;;;12.83;11.53;;;21.00;99.90;;;;;;5071374;28;20275;-66
2021/06/07 08:43:46;;;;;;;12.27;11.15;;;21.30;99.90;;;;;;5072073;28;20551;-64
2021/06/07 08:46:13;;;;;;;11.77;10.68;;;21.40;99.90;;;;;;5071887;28;20261;-64
2021/06/07 08:48:39;;;;;;;13.73;12.53;;;21.40;99.90;;;;;;5072025;28;20178;-64
2021/06/07 08:51:05;;;;;;;12.30;10.97;;;21.40;99.90;;;;;;5071420;28;20284;-66
2021/06/07 08:53:31;;;;;;;12.10;10.93;;;21.60;99.90;;;;;;5070980;28;20277;-66
2021/06/07 08:55:57;;;;;;;13.23;11.93;;;21.70;99.90;;;;;;5071871;28;20166;-66
2021/06/07 08:58:23;;;;;;;12.68;11.43;;;21.70;99.90;;;;;;5071550;28;20640;-64
2021/06/07 09:00:49;;;;;;;12.48;11.20;;;21.80;99.90;;;;;;5071420;28;20638;-65
2021/06/07 09:03:19;;;;;;;12.70;11.40;;;22.00;99.90;;;;;;5071553;28;20212;-66
2021/06/07 09:05:46;;;;;;;13.35;11.98;;;22.00;99.90;;;;;;5072214;28;20236;-64
2021/06/07 09:08:16;;;;;;;12.82;11.65;;;22.10;99.90;;;;;;5077732;28;20178;-65
2021/06/07 09:10:53;;;;;;;12.85;11.65;;;22.40;99.90;;;;;;5077075;28;20189;-67
2021/06/07 09:13:21;;;;;;;12.90;11.70;;;22.30;99.90;;;;;;5091470;28;20185;-66
2021/06/07 09:15:52;;;;;;;11.95;10.85;;;22.30;99.90;;;;;;5086074;28;20182;-66
2021/06/07 09:18:35;;;;;;;12.07;10.80;;;22.30;99.90;;;;;;5071463;28;20174;-65
2021/06/07 09:21:11;;;;;;;11.05;9.90;;;22.40;99.90;;;;;;5051326;28;20659;-64
2021/06/07 09:23:49;;;;;;;11.03;10.10;;;22.40;99.90;;;;;;5067841;28;20209;-65
2021/06/07 09:26:43;;;;;;;12.48;11.10;;;22.30;99.90;;;;;;5073457;28;20238;-65
2021/06/07 09:29:33;;;;;;;11.45;10.40;;;22.10;99.90;;;;;;5080691;28;20194;-66
2021/06/07 09:32:00;;;;;;;11.02;8.48;;;22.30;99.90;;;;;;5091099;28;20205;-66
2021/06/07 09:34:37;;;;;;;11.57;10.45;;;22.80;99.90;;;;;;5090928;28;20540;-65
2021/06/07 09:37:10;;;;;;;11.80;10.65;;;23.00;99.90;;;;;;5051394;28;20178;-64
2021/06/07 09:39:38;;;;;;;12.25;10.98;;;23.00;99.90;;;;;;5051320;28;20511;-64
2021/06/07 09:42:18;;;;;;;11.65;10.23;;;23.00;99.90;;;;;;5080206;28;20183;-65
2021/06/07 09:44:48;;;;;;;11.80;10.60;;;23.20;99.90;;;;;;5081957;28;20189;-65
2021/06/07 09:47:33;;;;;;;11.40;10.30;;;23.60;99.90;;;;;;5088002;28;20190;-65
2021/06/07 09:50:04;;;;;;;11.02;10.00;;;24.00;99.90;;;;;;5053331;28;20192;-67
2021/06/07 09:52:44;;;;;;;11.15;10.15;;;24.10;99.90;;;;;;5072121;28;20208;-66
2021/06/07 09:55:29;;;;;;;11.13;9.88;;;24.10;99.90;;;;;;5071114;28;20182;-67
2021/06/07 09:58:05;;;;;;;10.48;9.48;;;23.90;99.90;;;;;;5051351;28;20187;-65
2021/06/07 10:00:48;;;;;;;11.73;10.35;;;23.10;99.90;;;;;;5051497;28;20167;-66
2021/06/07 10:03:25;;;;;;;13.73;12.43;;;22.70;99.90;;;;;;5051015;28;20195;-66
2021/06/07 10:05:58;;;;;;;10.55;9.55;;;22.20;99.90;;;;;;5071359;28;20646;-65
2021/06/07 10:08:25;;;;;;;9.98;9.02;;;21.80;99.90;;;;;;5070965;28;20177;-65
2021/06/07 10:10:54;;;;;;;14.13;9.63;;;21.60;99.90;;;;;;5070791;28;20189;-66
2021/06/07 10:13:20;;;;;;;10.73;9.83;;;21.50;99.90;;;;;;5071163;28;20542;-66
2021/06/07 10:15:48;;;;;;;12.40;11.23;;;21.40;99.90;;;;;;5071088;28;20170;-66
2021/06/07 10:18:15;;;;;;;11.33;10.37;;;21.10;99.90;;;;;;5070588;28;20233;-65
2021/06/07 10:20:49;;;;;;;10.27;9.27;;;21.10;99.90;;;;;;5070647;28;20220;-67
2021/06/07 10:23:21;;;;;;;10.57;9.57;;;21.20;99.90;;;;;;5070629;28;20186;-67
2021/06/07 10:25:47;;;;;;;10.70;8.67;;;21.70;99.90;;;;;;5070940;28;20205;-65
2021/06/07 10:28:14;;;;;;;9.20;8.32;;;22.20;99.90;;;;;;5070806;28;20220;-64
2021/06/07 10:30:43;;;;;;;9.13;8.32;;;22.70;99.90;;;;;;5070353;28;20194;-65
2021/06/07 10:35:37;;;;;;;11.48;10.38;;;23.70;99.90;;;;;;5089698;28;20221;-65
2021/06/07 10:38:10;;;;;;;10.25;9.15;;;24.10;99.90;;;;;;5091350;28;20196;-66
2021/06/07 10:40:38;;;;;;;9.25;8.35;;;24.00;99.90;;;;;;5090604;28;20594;-66
2021/06/07 10:43:06;;;;;;;9.85;9.00;;;24.10;99.90;;;;;;5089700;28;20182;-66
2021/06/07 10:45:38;;;;;;;10.38;9.38;;;24.00;99.90;;;;;;5091822;28;20514;-66
2021/06/07 10:48:07;;;;;;;10.18;9.18;;;24.00;99.90;;;;;;5094564;28;20169;-65
2021/06/07 10:50:36;;;;;;;10.52;9.48;;;23.80;99.90;;;;;;5093185;28;20176;-66
2021/06/07 10:53:06;;;;;;;10.25;9.20;;;23.70;99.90;;;;;;5094447;28;20193;-65
2021/06/07 10:55:42;;;;;;;12.43;11.20;;;23.10;99.90;;;;;;5094141;28;20169;-65
2021/06/07 10:58:13;;;;;;;12.25;10.98;;;22.50;99.90;;;;;;5094429;28;20176;-65
2021/06/07 11:00:47;;;;;;;12.80;11.13;;;22.10;99.90;;;;;;5075820;28;20174;-65
2021/06/07 11:03:23;;;;;;;14.73;11.03;;;21.90;99.90;;;;;;5094025;28;20181;-65
2021/06/07 11:06:00;;;;;;;17.23;11.97;;;21.40;99.90;;;;;;5094207;28;20650;-65
2021/06/07 11:08:31;;;;;;;12.70;11.40;;;21.20;99.90;;;;;;5092605;28;20598;-65
2021/06/07 11:11:07;;;;;;;12.47;11.07;;;21.30;99.90;;;;;;5093805;28;20571;-65
2021/06/07 11:13:48;;;;;;;12.63;11.23;;;21.30;99.90;;;;;;5093590;28;20345;-65
2021/06/07 11:16:28;;;;;;;13.40;12.10;;;21.20;99.90;;;;;;5093812;28;20169;-65
2021/06/07 11:18:58;;;;;;;14.93;13.60;;;21.30;99.90;;;;;;5093783;28;20604;-65
2021/06/07 11:21:27;;;;;;;11.50;10.40;;;21.40;99.90;;;;;;5093244;28;20257;-65
2021/06/07 11:23:53;;;;;;;12.20;10.90;;;21.20;99.90;;;;;;5093653;28;20335;-65
2021/06/07 11:26:21;;;;;;;10.50;9.57;;;21.10;99.90;;;;;;5093656;28;20252;-65
2021/06/07 11:29:00;;;;;;;9.90;9.00;;;21.10;99.90;;;;;;5093573;28;20183;-65
2021/06/07 11:31:31;;;;;;;10.50;9.47;;;21.10;99.90;;;;;;5093326;28;20197;-65
2021/06/07 11:34:05;;;;;;;11.97;9.40;;;21.10;99.90;;;;;;5093335;28;20779;-65
2021/06/07 11:36:43;;;;;;;9.03;8.33;;;21.20;99.90;;;;;;5093594;28;20166;-65
2021/06/07 11:39:10;;;;;;;9.27;8.47;;;21.30;99.90;;;;;;5093538;28;20181;-65
2021/06/07 11:41:58;;;;;;;9.67;8.87;;;21.30;99.90;;;;;;5093184;28;20177;-65
2021/06/07 11:44:45;;;;;;;10.10;9.20;;;21.30;99.90;;;;;;5093230;28;20201;-65
2021/06/07 11:47:18;;;;;;;9.50;8.60;;;21.40;99.90;;;;;;5093010;28;20186;-65
2021/06/07 11:49:55;;;;;;;7.97;7.27;;;21.70;99.90;;;;;;5092366;28;20211;-65
2021/06/07 11:53:05;;;;;;;8.40;7.77;;;21.90;99.90;;;;;;5092618;28;20292;-65
2021/06/07 11:55:35;;;;;;;7.97;7.47;;;21.90;99.90;;;;;;5090748;28;20184;-65
2021/06/07 11:58:15;;;;;;;8.32;7.68;;;22.00;99.90;;;;;;5092489;28;20265;-65
2021/06/07 12:00:55;;;;;;;8.87;8.07;;;21.90;99.90;;;;;;5092839;28;20184;-65
2021/06/07 12:03:27;;;;;;;8.50;7.88;;;21.80;99.90;;;;;;5092370;28;20197;-65
2021/06/07 12:05:53;;;;;;;7.38;6.82;;;21.70;99.90;;;;;;5092921;28;20170;-65
2021/06/07 12:08:21;;;;;;;7.43;6.87;;;21.90;99.90;;;;;;5092622;28;20609;-66
2021/06/07 12:10:53;;;;;;;7.85;7.20;;;22.20;99.90;;;;;;5092477;28;20208;-65
2021/06/07 12:13:23;;;;;;;7.57;6.87;;;22.20;99.90;;;;;;5092543;28;20192;-65
2021/06/07 12:16:01;;;;;;;7.70;7.00;;;22.20;99.90;;;;;;5092752;28;20172;-66
2021/06/07 12:18:32;;;;;;;7.90;7.22;;;22.00;99.90;;;;;;5092673;28;20253;-65
2021/06/07 12:21:03;;;;;;;7.93;7.33;;;22.00;99.90;;;;;;5092361;28;20256;-65
2021/06/07 12:23:37;;;;;;;7.10;6.60;;;22.20;99.90;;;;;;5074261;28;20194;-66
2021/06/07 12:29:19;;;;;;;6.85;6.35;;;22.30;99.90;;;;;;5093055;28;20176;-65
2021/06/07 12:32:11;;;;;;;6.78;6.28;;;22.40;99.90;;;;;;5092271;28;20721;-65
2021/06/07 12:34:58;;;;;;;7.00;6.50;;;22.60;99.90;;;;;;5086523;28;20197;-65
2021/06/07 12:37:25;;;;;;;7.20;6.70;;;22.40;99.90;;;;;;5091713;28;20197;-66
2021/06/07 12:40:12;;;;;;;6.60;6.15;;;22.20;99.90;;;;;;5092294;28;20174;-65
2021/06/07 12:42:38;;;;;;;6.90;6.40;;;22.40;99.90;;;;;;5092108;28;20201;-65